Airfield :
LOGIN :

Register | Disclaimer

   EN    FR    IT 

 










Legend :    VFR   Marginal VFR   IFR   Intensive IFR   Very Intensive IFR
Visi :
Ceiling :
>= 8 km
>= 3000ft
5 to 8 km
1000 to 3000 ft
1500m to 5 km
500 to 1000 ft
800 to 1500m
200 to 500 ft
< 800m
< 200 ft
Symbols :   Thunderstorms  Fog  Heavy snow  Heavy precipitations  Wind > 20 kt
SIGMETs :     Misc.  Thunderstorms  Icing  Turbulence  Mountain Waves  Volcanic Ashes







- Airport Elevation : 626 ft
- IATA code : CRA


LRCV - Craiova

CURRENT METAR :
  • 201930Z 26006KT 2500 BR SCT002 BKN004 OVC012 00/00 Q1015 R09/29//95

EXPIRED METARs :
  • 201900Z 26005KT 1700 R09/1700U BR BKN002 OVC004 00/00 Q1015 R09/29//95
  • 201830Z 27003KT 0800 R09/0900U FG BKN002 OVC005 00/00 Q1015 R09/29//95
  • 201800Z 28006KT 0800 R09/1200N FG BKN002 00/00 Q1015 R09/29//95
  • 201730Z 28004KT 0150 R09/0375N FG VV001 00/00 Q1015 R09/29//95
  • 201700Z 28004KT 0150 R09/0400N FG VV001 00/00 Q1015 R09/29//95

TAF TAF LRCV
Valid from the 20 at 18:00 until the 21 at 03:00 UTC


201700Z 2018/2103 28005KT 0150 FG VV001
BECMG 2019/2021 0600 FZFG OVC002
BECMG 2021/2023 1500 BR BKN005
BECMG 2100/2102 5000 SCT010
No reported NOTAMs for that airfield.



MET'MAP, your aeronautical weather chart ! - Copyright ORBIFLY December 2007 - Disclaimer

ORBIFLY MET'MAP TEAM :

Programming & Development : Alexandra Zaïnal
Concept & Development : Baudouin d'Aumeries
Co-Development & Prog : Marc-Olivier Méhu
Technical & hardware support : Manuel Goepfert

Contact : metmap@orbifly.com




SOURCES & CREDITS :

   NOAA